LTAC Airport Information

Runway Information
Runway 03L Length 12303 ft width 148 ft
Elevation 3100 ft Threshold 1148 ft Heading 36
Runway 21R Length 12303 ft Width 148 ft
Elevation 3123 ft Threshold 0 ft Heading 216
Runway 03R Length 12303 ft width 197 ft
Elevation 3097 ft Threshold 0 ft Heading 35
Runway 21L Length 12303 ft Width 197 ft
Elevation 3125 ft Threshold 0 ft Heading 215
Airport Frequencies
Type APP Name APP Frequency 119.1 MHZ
Type ATIS Name ATIS Frequency 123.6 MHZ
Type GND Name GND Frequency 121.9 MHZ
Type TWR Name TWR Frequency 118.1 MHZ
Airport Navaids
Type VOR-DME Name Cubuk Frequency 114300 KHZ
Airport Weather Information & NOTAM
ADDS - METARS form results

(1115 UTC 20 November 2019)
Data provider http://aviationweather.gov/metar/data/
 
METAR text: LTAC 201050Z VRB01KT 9999 FEW040 14/M04 Q1023 NOSIG RMK RWY21L VRB02KT RWY03L VRB02KT RWY21R VRB01KT
Conditions at: LTAC (ANKARA/ESENBOGA , TR) observed 1050 UTC 20 November 2019
Temperature: 14.0°C (57°F)
Dewpoint: -4.0°C (25°F) [RH = 28%]
Pressure (altimeter): 30.21 inches Hg (1023.0 mb)
Winds: variable direction winds at 1 MPH (1 knots; 0.5 m/s)
Visibility: 6 or more miles (10+ km)
Ceiling: at least 12,000 feet AGL
Clouds: few clouds at 4000 feet AGL
Weather: no significant weather observed at this time

METAR text: LTAC 201020Z VRB01KT 9999 FEW040 13/M02 Q1023 NOSIG RMK RWY21L VRB02KT RWY03L VRB02KT RWY21R 00000KT
Conditions at: LTAC (ANKARA/ESENBOGA , TR) observed 1020 UTC 20 November 2019
Temperature: 13.0°C (55°F)
Dewpoint: -2.0°C (28°F) [RH = 35%]
Pressure (altimeter): 30.21 inches Hg (1023.0 mb)
Winds: variable direction winds at 1 MPH (1 knots; 0.5 m/s)
Visibility: 6 or more miles (10+ km)
Ceiling: at least 12,000 feet AGL
Clouds: few clouds at 4000 feet AGL
Weather: no significant weather observed at this time

Forecast for: LTAC (ANKARA/ESENBOGA , TR)
Text: TAF LTAC 201040Z 2012/2112 VRB02KT 9999 FEW040
Forecast period: 1200 UTC 20 November 2019 to 1200 UTC 21 November 2019
Forecast type: FROM: standard forecast or significant change
Winds: variable direction winds at 2 MPH (2 knots; 1.0 m/s)
Visibility: 6 or more miles 10+ km)
Ceiling: at least 12,000 feet AGL
Clouds: few clouds at 4000 feet AGL
Weather: no significant weather forecast for this period
Text: BECMG 2012/2014 CAVOK
Forecast period: 1200 UTC 20 November 2019 to 1200 UTC 21 November 2019
Forecast type: BECOMING: Conditions expected to become as follows by 1400 UTC 20 November 2019
Winds: variable direction winds at 2 MPH (2 knots; 1.0 m/s)
Visibility: 6 or more miles 10+ km)
Ceiling: unknown
Clouds: missing
Weather: NSW  (no significant weather)
Text: PROB40
Forecast period: 0200 to 0600 UTC 21 November 2019
Forecast type: TEMPORARY: The following changes expected for less than half the time period
Visibility: 2.49 miles (4.01 km)
Ceiling: unknown
Clouds: missing
Weather: BR  (mist)